Time;durP1;ratioP1;P1;durP2;ratioP2;P2;SDS_P1;SDS_P2;PMS_P1;PMS_P2;Temp;Humidity;BMP_temperature;BMP_pressure;BME280_temperature;BME280_humidity;BME280_pressure;Samples;Min_cycle;Max_cycle;Signal;HPM_P1;HPM_P2
2021/06/24 00:02:22;;;;;;;7.63;5.77;;;;;;;15.74;90.56;101095.34;5025062;28;20735;-80
2021/06/24 00:04:49;;;;;;;11.27;6.57;;;;;;;15.77;90.04;101094.44;5019460;28;20483;-80
2021/06/24 00:07:15;;;;;;;7.57;5.70;;;;;;;15.73;89.44;101104.19;5024913;28;20447;-80
2021/06/24 00:09:42;;;;;;;9.37;5.77;;;;;;;15.76;90.05;101093.59;5019965;28;20207;-80
2021/06/24 00:12:09;;;;;;;8.40;5.27;;;;;;;15.78;89.67;101090.91;5022809;28;20219;-81
2021/06/24 00:14:37;;;;;;;8.27;5.50;;;;;;;15.79;89.20;101103.09;5022606;28;20224;-80
2021/06/24 00:17:04;;;;;;;6.40;5.30;;;;;;;15.85;91.03;101111.59;5020960;28;20204;-80
2021/06/24 00:19:30;;;;;;;9.53;5.87;;;;;;;15.80;88.53;101125.84;5019202;28;20713;-81
2021/06/24 00:21:57;;;;;;;6.50;5.27;;;;;;;15.79;89.42;101132.03;5020014;28;20260;-81
2021/06/24 00:24:23;;;;;;;8.03;5.63;;;;;;;15.82;90.34;101143.28;5020570;28;20233;-80
2021/06/24 00:26:50;;;;;;;6.17;5.57;;;;;;;15.88;91.08;101161.44;5022649;28;20680;-80
2021/06/24 00:29:16;;;;;;;5.77;5.27;;;;;;;15.96;90.82;101178.69;5020452;28;20231;-80
2021/06/24 00:31:44;;;;;;;6.77;5.67;;;;;;;15.89;89.06;101194.69;5020863;28;20222;-80
2021/06/24 00:34:10;;;;;;;9.20;5.63;;;;;;;15.86;89.76;101199.22;5007020;28;20352;-80
2021/06/24 00:36:37;;;;;;;6.73;5.30;;;;;;;15.89;91.33;101207.00;5017273;28;20237;-80
2021/06/24 00:39:03;;;;;;;7.63;4.93;;;;;;;15.92;91.41;101212.13;5018550;28;20520;-80
2021/06/24 00:41:31;;;;;;;7.97;5.70;;;;;;;15.99;91.83;101216.25;5021085;28;20776;-79
2021/06/24 00:43:58;;;;;;;6.30;5.57;;;;;;;16.05;91.19;101225.66;5018518;28;20654;-80
2021/06/24 00:46:24;;;;;;;6.73;5.73;;;;;;;15.93;90.30;101215.63;5001608;28;20200;-80
2021/06/24 00:48:57;;;;;;;7.40;5.23;;;;;;;16.00;91.05;101223.19;5018894;28;20239;-80
2021/06/24 00:51:24;;;;;;;6.17;5.57;;;;;;;15.97;89.20;101225.97;5020686;28;20303;-80
2021/06/24 00:53:50;;;;;;;7.37;5.90;;;;;;;15.96;90.31;101212.88;5011216;28;20819;-81
2021/06/24 00:56:26;;;;;;;7.73;5.23;;;;;;;15.95;88.98;101204.09;5020749;28;20208;-79
2021/06/24 00:58:54;;;;;;;9.33;5.13;;;;;;;15.96;88.59;101200.56;5019581;28;20222;-80
2021/06/24 01:01:21;;;;;;;11.33;5.90;;;;;;;15.89;87.03;101181.53;5019898;28;20237;-80
2021/06/24 01:03:47;;;;;;;7.07;5.10;;;;;;;15.81;85.83;101167.88;5005014;28;20740;-80
2021/06/24 01:06:15;;;;;;;7.30;5.10;;;;;;;15.72;86.05;101160.28;4998474;28;20216;-79
2021/06/24 01:08:41;;;;;;;6.90;5.23;;;;;;;15.71;86.31;101151.56;4993608;28;20495;-80
2021/06/24 01:11:15;;;;;;;7.43;5.37;;;;;;;15.72;87.11;101141.88;5018539;28;20227;-80
2021/06/24 01:13:43;;;;;;;7.00;5.93;;;;;;;15.67;86.19;101136.81;5015660;28;20209;-80
2021/06/24 01:16:10;;;;;;;9.60;5.83;;;;;;;15.69;87.07;101127.09;5019308;28;20234;-80
2021/06/24 01:18:36;;;;;;;5.93;5.10;;;;;;;15.68;88.05;101137.69;4998885;28;20256;-81
2021/06/24 01:21:03;;;;;;;7.20;5.77;;;;;;;15.64;88.16;101128.22;5018905;28;20641;-80
2021/06/24 01:23:38;;;;;;;9.07;5.87;;;;;;;15.55;87.99;101118.03;5019146;28;20588;-80
2021/06/24 01:26:06;;;;;;;7.83;6.33;;;;;;;15.48;89.20;101112.19;5002817;28;20456;-81
2021/06/24 01:28:33;;;;;;;10.83;5.63;;;;;;;15.42;90.46;101110.63;5021103;28;20197;-80
2021/06/24 01:31:00;;;;;;;7.43;5.90;;;;;;;15.35;91.66;101093.38;5021644;28;20231;-80
2021/06/24 01:33:26;;;;;;;6.53;5.70;;;;;;;15.33;92.07;101088.19;5022719;28;20192;-80
2021/06/24 01:35:57;;;;;;;10.27;6.27;;;;;;;15.33;92.42;101082.09;5020298;28;20306;-79
2021/06/24 01:38:25;;;;;;;10.33;6.33;;;;;;;15.38;94.86;101066.16;5022844;28;20387;-80
2021/06/24 01:41:19;;;;;;;9.40;5.93;;;;;;;15.20;93.40;101051.97;5015777;28;20243;-79
2021/06/24 01:43:46;;;;;;;7.83;6.10;;;;;;;15.15;94.92;101044.25;5005253;28;20206;-79
2021/06/24 01:46:13;;;;;;;10.00;6.77;;;;;;;15.07;94.79;101036.66;5013013;28;20230;-79
2021/06/24 01:48:40;;;;;;;7.00;6.23;;;;;;;15.00;95.46;101024.69;5006533;28;20204;-80
2021/06/24 01:51:08;;;;;;;9.83;6.73;;;;;;;15.08;97.55;101019.16;5004039;28;20569;-79
2021/06/24 01:53:34;;;;;;;12.30;6.63;;;;;;;14.97;96.10;101022.19;5019602;28;20200;-80
2021/06/24 01:56:04;;;;;;;8.20;6.40;;;;;;;14.94;96.83;101023.16;5021188;28;20232;-80
2021/06/24 01:58:35;;;;;;;10.50;7.20;;;;;;;14.93;97.92;101020.56;5025008;28;20204;-79
2021/06/24 02:01:21;;;;;;;11.27;6.73;;;;;;;14.92;97.36;101027.59;5021919;28;20285;-80
2021/06/24 02:03:54;;;;;;;12.63;7.23;;;;;;;14.93;98.22;101031.09;5001035;28;20811;-79
2021/06/24 02:06:22;;;;;;;11.40;6.73;;;;;;;14.99;100.00;101017.75;5005506;28;20212;-80
2021/06/24 02:08:54;;;;;;;9.80;7.37;;;;;;;14.96;99.76;101015.22;5005512;28;20211;-80
2021/06/24 02:11:44;;;;;;;7.97;7.17;;;;;;;14.95;100.00;101014.38;5013282;28;20238;-80
2021/06/24 02:14:12;;;;;;;9.07;7.20;;;;;;;14.88;100.00;101005.03;5027558;28;20246;-79
2021/06/24 02:16:39;;;;;;;12.43;7.60;;;;;;;14.77;99.77;100997.56;5026495;28;20683;-79
2021/06/24 02:19:06;;;;;;;11.07;7.50;;;;;;;14.78;100.00;100990.53;5008216;28;20218;-80
2021/06/24 02:21:54;;;;;;;9.37;7.40;;;;;;;14.67;100.00;100977.81;5007213;28;20628;-79
2021/06/24 02:24:22;;;;;;;10.33;7.57;;;;;;;14.62;100.00;100963.16;5027868;28;20210;-79
2021/06/24 02:26:52;;;;;;;10.77;8.00;;;;;;;14.69;100.00;100951.53;5027889;28;20576;-79
2021/06/24 02:29:44;;;;;;;11.70;7.70;;;;;;;14.56;100.00;100938.84;5024429;28;20213;-78
2021/06/24 02:32:11;;;;;;;9.50;7.83;;;;;;;14.47;100.00;100925.19;5027189;28;20232;-78
2021/06/24 02:34:52;;;;;;;10.60;7.50;;;;;;;14.51;100.00;100911.03;5008360;28;20296;-79
2021/06/24 02:37:28;;;;;;;10.73;7.97;;;;;;;14.43;100.00;100910.50;5014773;28;20278;-79
2021/06/24 02:40:16;;;;;;;9.70;7.80;;;;;;;14.43;100.00;100898.22;5025511;28;20232;-80
2021/06/24 02:42:44;;;;;;;8.90;7.53;;;;;;;14.42;100.00;100882.53;5003314;28;20207;-79
2021/06/24 02:45:15;;;;;;;16.80;8.23;;;;;;;14.34;100.00;100886.31;5028741;28;20207;-79
2021/06/24 02:47:43;;;;;;;13.70;8.37;;;;;;;14.29;100.00;100869.88;5031011;28;20212;-78
2021/06/24 02:50:12;;;;;;;9.03;7.43;;;;;;;14.27;100.00;100855.97;5027647;28;20231;-77
2021/06/24 02:52:38;;;;;;;8.13;7.33;;;;;;;14.25;100.00;100849.94;5022495;28;20239;-80
2021/06/24 02:55:06;;;;;;;12.93;7.77;;;;;;;14.19;100.00;100848.41;5009025;28;20211;-79
2021/06/24 02:57:41;;;;;;;10.47;7.47;;;;;;;14.19;100.00;100858.03;5013870;28;20289;-78
2021/06/24 03:00:23;;;;;;;10.53;7.47;;;;;;;14.19;100.00;100868.50;5011038;28;20286;-79
2021/06/24 03:03:09;;;;;;;9.87;7.80;;;;;;;14.20;100.00;100888.59;5025859;28;20207;-79
2021/06/24 03:05:53;;;;;;;10.67;7.73;;;;;;;14.24;100.00;100899.81;5006580;28;20233;-79
2021/06/24 03:08:21;;;;;;;9.43;7.60;;;;;;;14.32;100.00;100916.97;5027029;28;20234;-79
2021/06/24 03:11:00;;;;;;;10.93;8.30;;;;;;;14.36;100.00;100941.34;5003428;28;20226;-79
2021/06/24 03:13:27;;;;;;;11.17;7.80;;;;;;;14.32;100.00;100947.63;4998688;28;20304;-79
2021/06/24 03:15:55;;;;;;;14.20;8.93;;;;;;;14.27;100.00;100967.91;5020771;28;20211;-79
2021/06/24 03:18:22;;;;;;;12.00;8.70;;;;;;;14.32;100.00;100972.06;5004879;28;20222;-80
2021/06/24 03:20:48;;;;;;;12.00;8.43;;;;;;;14.39;100.00;100976.19;5027373;28;20314;-80
2021/06/24 03:23:15;;;;;;;10.00;8.33;;;;;;;14.32;100.00;100976.47;5021502;28;20230;-79
2021/06/24 03:25:44;;;;;;;12.00;8.97;;;;;;;14.35;100.00;100965.84;5027181;28;20199;-80
2021/06/24 03:28:12;;;;;;;12.57;8.53;;;;;;;14.37;100.00;100978.00;5025710;28;20242;-80
2021/06/24 03:30:58;;;;;;;14.60;9.30;;;;;;;14.47;100.00;100994.25;5028373;28;20217;-80
2021/06/24 03:33:25;;;;;;;10.57;8.47;;;;;;;14.41;100.00;100997.09;5007711;28;20209;-80
2021/06/24 03:35:52;;;;;;;9.80;8.73;;;;;;;14.39;100.00;101005.03;5008690;28;20379;-79
2021/06/24 03:38:22;;;;;;;13.50;8.63;;;;;;;14.49;100.00;101007.31;5003966;28;20572;-80
2021/06/24 03:40:52;;;;;;;11.93;8.57;;;;;;;14.42;100.00;101000.56;5008246;28;20251;-80
2021/06/24 03:43:19;;;;;;;10.80;9.30;;;;;;;14.56;100.00;101014.03;5023375;28;20202;-79
2021/06/24 03:45:45;;;;;;;13.03;8.80;;;;;;;14.56;100.00;101006.19;5003115;28;20219;-79
2021/06/24 03:48:13;;;;;;;10.97;8.13;;;;;;;14.69;100.00;101004.84;5011582;28;20210;-79
2021/06/24 03:50:40;;;;;;;11.57;9.17;;;;;;;14.67;100.00;101005.81;5015646;28;20825;-79
2021/06/24 03:53:08;;;;;;;13.13;9.20;;;;;;;14.68;100.00;101008.38;4998037;28;20218;-81
2021/06/24 03:55:37;;;;;;;11.27;8.93;;;;;;;14.69;100.00;101014.50;5021562;28;20239;-79
2021/06/24 03:58:14;;;;;;;14.23;9.10;;;;;;;14.67;100.00;101016.31;5000477;28;20211;-79
2021/06/24 04:00:43;;;;;;;14.47;8.83;;;;;;;14.70;100.00;101017.03;4996664;28;20292;-79
2021/06/24 04:03:16;;;;;;;11.67;8.77;;;;;;;14.63;100.00;101009.47;5001993;28;20200;-80
2021/06/24 04:05:55;;;;;;;11.47;8.93;;;;;;;14.56;100.00;101014.91;5001111;28;20370;-79
2021/06/24 04:08:23;;;;;;;12.37;8.77;;;;;;;14.50;100.00;101017.75;5019508;28;20206;-80
2021/06/24 04:10:49;;;;;;;9.30;8.20;;;;;;;14.52;100.00;101010.69;5001523;28;20226;-79
2021/06/24 04:13:16;;;;;;;11.37;8.07;;;;;;;14.60;100.00;101014.81;5011436;28;20251;-79
2021/06/24 04:15:43;;;;;;;13.03;9.37;;;;;;;14.56;100.00;101012.28;5002446;28;20677;-79
2021/06/24 04:18:10;;;;;;;10.83;9.10;;;;;;;14.53;100.00;101015.03;5018508;28;20210;-79
2021/06/24 04:20:43;;;;;;;10.83;8.63;;;;;;;14.61;100.00;101013.91;5007132;28;20782;-79
2021/06/24 04:23:10;;;;;;;14.23;9.50;;;;;;;14.60;100.00;101015.69;5017916;28;20230;-79
2021/06/24 04:25:49;;;;;;;13.77;9.73;;;;;;;14.52;100.00;101010.69;5018346;28;20297;-79
2021/06/24 04:28:16;;;;;;;12.00;8.83;;;;;;;14.50;100.00;101017.75;5020278;28;20214;-79
2021/06/24 04:30:56;;;;;;;11.97;8.40;;;;;;;14.45;100.00;101005.72;5017112;28;20229;-79
2021/06/24 04:33:23;;;;;;;12.93;9.33;;;;;;;14.47;100.00;100998.66;5001694;28;20215;-79
2021/06/24 04:36:09;;;;;;;14.20;8.23;;;;;;;14.55;100.00;101004.47;5018173;28;20199;-79
2021/06/24 04:38:37;;;;;;;12.10;8.73;;;;;;;14.56;100.00;101009.69;5001834;28;20210;-79
2021/06/24 04:41:05;;;;;;;12.00;8.87;;;;;;;14.55;100.00;101017.59;5008189;28;20234;-79
2021/06/24 04:43:46;;;;;;;13.93;9.13;;;;;;;14.55;100.00;101022.84;5004143;28;20285;-79
2021/06/24 04:46:13;;;;;;;12.57;8.50;;;;;;;14.50;100.00;101025.63;4999668;28;20210;-79
2021/06/24 04:48:40;;;;;;;11.40;9.10;;;;;;;14.52;100.00;101022.94;5019279;28;20564;-79
2021/06/24 04:51:26;;;;;;;12.37;8.53;;;;;;;14.61;100.00;101027.03;5017831;28;20306;-79
2021/06/24 04:53:53;;;;;;;11.70;8.87;;;;;;;14.52;100.00;101022.94;5019391;28;20234;-79
2021/06/24 04:56:23;;;;;;;10.50;9.33;;;;;;;14.47;100.00;101023.09;5000051;28;20293;-79
2021/06/24 04:58:50;;;;;;;12.93;8.43;;;;;;;14.55;100.00;101033.34;5016240;28;20212;-79
2021/06/24 05:01:35;;;;;;;12.33;9.03;;;;;;;14.53;100.00;101024.69;5020427;28;20231;-79
2021/06/24 05:04:24;;;;;;;12.20;9.03;;;;;;;14.53;100.00;101025.53;5020018;28;20213;-79
2021/06/24 05:06:53;;;;;;;11.00;8.87;;;;;;;14.58;100.00;101043.72;5024632;28;20331;-80
2021/06/24 05:09:25;;;;;;;10.60;8.53;;;;;;;14.58;100.00;101042.00;5021409;28;20206;-79
2021/06/24 05:11:51;;;;;;;10.07;8.63;;;;;;;14.62;100.00;101047.97;5024271;28;20227;-79
2021/06/24 05:14:18;;;;;;;10.17;9.00;;;;;;;14.65;100.00;101055.75;5017390;28;20217;-78
2021/06/24 05:16:44;;;;;;;11.30;9.47;;;;;;;14.61;100.00;101055.91;5012983;28;20245;-79
2021/06/24 05:19:11;;;;;;;12.63;8.93;;;;;;;14.53;100.00;101064.03;5025050;28;20298;-79
2021/06/24 05:21:39;;;;;;;10.80;9.20;;;;;;;14.58;100.00;101065.59;5029185;28;20282;-79
2021/06/24 05:24:08;;;;;;;13.77;9.77;;;;;;;14.57;100.00;101061.22;5027135;28;20226;-79
2021/06/24 05:26:35;;;;;;;15.43;8.90;;;;;;;14.53;100.00;101059.63;5028110;28;20235;-79
2021/06/24 05:29:01;;;;;;;12.13;8.90;;;;;;;14.51;100.00;101058.84;5026834;28;20211;-79
2021/06/24 05:31:27;;;;;;;14.20;9.07;;;;;;;14.53;100.00;101058.78;5027723;28;20208;-80
2021/06/24 05:33:54;;;;;;;13.90;8.97;;;;;;;14.49;100.00;101059.78;5027746;28;20528;-79
2021/06/24 05:36:20;;;;;;;12.33;9.70;;;;;;;14.49;100.00;101049.28;5023405;28;20705;-80
2021/06/24 05:38:47;;;;;;;12.23;8.60;;;;;;;14.58;100.00;101049.84;5023555;28;20306;-79
2021/06/24 05:41:15;;;;;;;11.73;9.43;;;;;;;14.55;100.00;101051.72;5030405;28;20258;-79
2021/06/24 05:43:41;;;;;;;12.17;8.60;;;;;;;14.61;100.00;101050.66;5029310;28;20202;-79
2021/06/24 05:46:07;;;;;;;12.60;8.70;;;;;;;14.68;100.00;101049.53;5030008;28;20353;-79
2021/06/24 05:48:34;;;;;;;10.93;8.50;;;;;;;14.60;100.00;101047.19;5028951;28;20208;-80
2021/06/24 05:51:00;;;;;;;13.83;9.03;;;;;;;14.67;100.00;101046.06;5027810;28;20640;-79
2021/06/24 05:53:27;;;;;;;13.80;8.70;;;;;;;14.76;100.00;101042.22;5030502;28;20460;-80
2021/06/24 05:55:53;;;;;;;11.40;8.83;;;;;;;14.74;100.00;101042.28;5031046;28;20411;-79
2021/06/24 05:58:22;;;;;;;11.13;8.63;;;;;;;14.78;100.00;101045.66;5028036;28;20303;-79
2021/06/24 06:00:50;;;;;;;11.90;8.83;;;;;;;14.92;100.00;101037.25;5027322;28;20227;-79
2021/06/24 06:03:18;;;;;;;11.73;8.63;;;;;;;14.99;100.00;101040.53;5026589;28;20215;-79
2021/06/24 06:05:45;;;;;;;17.10;8.77;;;;;;;14.98;100.00;101041.41;5032829;28;20199;-79
2021/06/24 06:08:11;;;;;;;12.77;8.97;;;;;;;15.06;100.00;101044.63;5019203;28;20254;-79
2021/06/24 06:10:39;;;;;;;10.10;8.37;;;;;;;15.04;100.00;101035.91;5031745;28;20230;-80
2021/06/24 06:13:07;;;;;;;13.27;8.63;;;;;;;15.14;100.00;101030.28;5026872;28;20208;-79
2021/06/24 06:15:36;;;;;;;12.83;8.53;;;;;;;15.28;100.00;101032.34;5030276;28;20228;-79
2021/06/24 06:18:09;;;;;;;12.07;8.33;;;;;;;15.39;100.00;101034.56;5020503;28;20204;-78
2021/06/24 06:20:36;;;;;;;12.10;8.13;;;;;;;15.50;100.00;101031.50;5022175;28;20726;-78
2021/06/24 06:23:02;;;;;;;11.97;8.00;;;;;;;15.60;100.00;101027.59;5024265;28;20203;-78
2021/06/24 06:25:29;;;;;;;8.60;7.23;;;;;;;15.73;100.00;101027.94;5033421;28;20560;-78
2021/06/24 06:27:55;;;;;;;11.20;8.23;;;;;;;15.95;100.00;101022.66;5029381;28;20200;-78
2021/06/24 06:30:23;;;;;;;12.50;8.23;;;;;;;16.05;100.00;101015.25;5021899;28;20199;-79
2021/06/24 06:32:51;;;;;;;10.23;7.60;;;;;;;16.14;99.72;101014.84;5026620;28;20210;-79
2021/06/24 06:35:18;;;;;;;10.37;7.57;;;;;;;16.20;98.47;101019.84;5041553;28;20205;-79
2021/06/24 06:37:44;;;;;;;9.33;6.83;;;;;;;16.36;98.10;101009.50;5033980;28;20761;-79
2021/06/24 06:40:12;;;;;;;10.23;6.50;;;;;;;16.65;98.00;101010.81;5045417;28;20393;-79
2021/06/24 06:42:39;;;;;;;8.73;6.67;;;;;;;16.94;97.62;101015.69;5031027;28;20259;-79
2021/06/24 06:45:06;;;;;;;9.90;6.50;;;;;;;17.14;96.90;101014.78;5036693;28;20286;-79
2021/06/24 06:47:33;;;;;;;10.00;7.00;;;;;;;17.31;95.24;101016.63;5018342;28;20295;-80
2021/06/24 06:50:01;;;;;;;8.97;6.03;;;;;;;17.41;94.42;101017.88;5037793;28;20262;-78
2021/06/24 06:52:27;;;;;;;7.13;5.70;;;;;;;17.31;91.95;101027.16;5029175;28;20223;-79
2021/06/24 06:54:53;;;;;;;10.53;6.07;;;;;;;17.31;92.13;101020.09;5035630;28;20247;-79
2021/06/24 06:57:20;;;;;;;9.20;5.20;;;;;;;17.37;92.43;101019.78;5036651;28;20204;-78
2021/06/24 06:59:47;;;;;;;6.37;5.40;;;;;;;17.46;91.47;101018.50;5046200;28;20215;-79
2021/06/24 07:02:13;;;;;;;7.33;6.13;;;;;;;17.46;90.84;101026.41;5036514;28;20561;-79
2021/06/24 07:04:40;;;;;;;6.53;5.00;;;;;;;17.66;92.11;101028.09;5025950;28;20281;-79
2021/06/24 07:07:07;;;;;;;7.20;5.53;;;;;;;17.70;90.30;101028.78;5020608;28;20205;-79
2021/06/24 07:09:34;;;;;;;6.23;5.07;;;;;;;17.76;89.23;101031.09;5036568;28;20513;-78
2021/06/24 07:12:00;;;;;;;8.23;4.93;;;;;;;17.85;88.59;101025.34;5032323;28;20235;-78
2021/06/24 07:14:27;;;;;;;7.27;4.97;;;;;;;17.87;86.99;101031.47;5036389;28;20211;-79
2021/06/24 07:16:53;;;;;;;6.23;4.57;;;;;;;18.08;89.17;101029.53;5034028;28;20212;-79
2021/06/24 07:19:19;;;;;;;7.70;5.17;;;;;;;18.27;88.68;101018.00;5039364;28;20266;-78
2021/06/24 07:21:46;;;;;;;10.47;5.23;;;;;;;18.21;87.35;101028.91;5027898;28;20782;-79
2021/06/24 07:24:14;;;;;;;7.60;4.80;;;;;;;18.34;88.74;101029.94;5031640;28;20271;-79
2021/06/24 07:26:40;;;;;;;7.43;4.47;;;;;;;18.32;86.32;101029.19;5032107;28;20455;-79
2021/06/24 07:29:07;;;;;;;6.10;4.47;;;;;;;18.41;87.45;101033.13;5032853;28;20204;-79
2021/06/24 07:31:33;;;;;;;11.03;5.00;;;;;;;18.42;86.46;101034.84;5017374;28;20230;-79
2021/06/24 07:34:00;;;;;;;8.40;4.73;;;;;;;18.63;87.47;101038.13;5034228;28;20221;-80
2021/06/24 07:36:26;;;;;;;8.73;4.30;;;;;;;18.68;84.85;101039.59;5034512;28;20202;-80
2021/06/24 07:38:53;;;;;;;6.43;4.10;;;;;;;18.88;87.51;101033.25;5033781;28;20220;-79
2021/06/24 07:41:23;;;;;;;7.07;4.30;;;;;;;19.01;84.61;101035.22;5032604;28;20632;-80
2021/06/24 07:43:50;;;;;;;6.20;4.10;;;;;;;18.86;80.61;101037.78;5033195;28;20366;-78
2021/06/24 07:46:17;;;;;;;5.13;3.60;;;;;;;18.95;83.51;101039.06;5029745;28;20661;-78
2021/06/24 07:48:43;;;;;;;4.70;3.37;;;;;;;18.97;82.43;101037.19;5030964;28;20208;-78
2021/06/24 07:51:10;;;;;;;6.37;3.47;;;;;;;19.01;82.19;101040.50;5031309;28;20231;-78
2021/06/24 07:53:41;;;;;;;6.03;3.63;;;;;;;19.17;82.85;101037.88;5030469;28;20303;-78
2021/06/24 07:56:08;;;;;;;4.97;3.40;;;;;;;19.20;79.63;101040.34;5030961;28;20203;-79
2021/06/24 07:58:36;;;;;;;5.17;3.37;;;;;;;19.29;77.57;101038.06;5033128;28;20212;-80
2021/06/24 08:01:03;;;;;;;5.77;3.37;;;;;;;19.44;78.36;101036.31;5028803;28;20294;-78
2021/06/24 08:03:29;;;;;;;5.70;3.20;;;;;;;19.67;78.12;101037.66;5031359;28;20674;-79
2021/06/24 08:05:55;;;;;;;5.03;3.20;;;;;;;19.78;76.84;101037.06;5029195;28;20227;-80
2021/06/24 08:08:22;;;;;;;4.50;3.43;;;;;;;19.97;76.78;101031.53;5030116;28;20210;-80
2021/06/24 08:10:48;;;;;;;4.63;3.40;;;;;;;20.23;76.99;101024.69;5027634;28;20262;-80
2021/06/24 08:13:15;;;;;;;5.03;2.70;;;;;;;20.31;75.81;101031.31;5030588;28;20231;-80
2021/06/24 08:15:43;;;;;;;4.80;2.73;;;;;;;20.20;73.90;101032.81;5010042;28;20196;-80
2021/06/24 08:18:09;;;;;;;6.50;3.13;;;;;;;20.15;71.02;101037.53;5029252;28;20689;-80
2021/06/24 08:20:36;;;;;;;5.20;2.90;;;;;;;20.09;70.76;101053.78;5008303;28;20286;-79
2021/06/24 08:23:02;;;;;;;6.17;2.97;;;;;;;20.18;74.30;101034.69;5028672;28;20230;-79
2021/06/24 08:25:29;;;;;;;4.93;3.00;;;;;;;20.13;74.08;101039.41;5029118;28;20332;-79
2021/06/24 08:27:55;;;;;;;4.40;2.90;;;;;;;20.18;72.61;101026.75;5029651;28;20208;-79
2021/06/24 08:30:22;;;;;;;4.10;2.77;;;;;;;20.38;74.38;101036.13;5029241;28;20235;-79
2021/06/24 08:32:50;;;;;;;2.90;2.50;;;;;;;20.51;72.94;101032.72;5028811;28;20287;-80
2021/06/24 08:35:17;;;;;;;4.23;3.17;;;;;;;20.56;74.29;101039.47;5028821;28;20697;-80
2021/06/24 08:37:47;;;;;;;4.70;3.00;;;;;;;20.52;69.82;101042.41;5014448;28;20608;-79
2021/06/24 08:40:14;;;;;;;3.77;2.63;;;;;;;20.62;70.48;101040.91;5011237;28;20219;-80
2021/06/24 08:42:42;;;;;;;3.80;2.57;;;;;;;20.34;69.44;101037.28;5026577;28;20222;-80
2021/06/24 08:45:11;;;;;;;2.97;2.63;;;;;;;20.63;71.71;101037.31;5012214;28;20208;-79
2021/06/24 08:47:40;;;;;;;3.43;2.77;;;;;;;20.72;69.19;101044.72;5027906;28;20726;-80
2021/06/24 08:50:09;;;;;;;5.57;2.47;;;;;;;20.79;70.04;101042.50;5030695;28;20950;-79
2021/06/24 08:52:36;;;;;;;4.20;2.83;;;;;;;21.07;70.47;101040.78;5030164;28;20232;-80
2021/06/24 08:55:03;;;;;;;3.60;2.67;;;;;;;21.19;68.44;101045.28;5011699;28;20204;-80
2021/06/24 08:57:30;;;;;;;4.93;2.90;;;;;;;21.47;71.94;101041.72;5030201;28;20231;-80
2021/06/24 08:59:58;;;;;;;3.87;2.90;;;;;;;21.27;69.27;101053.59;5033243;28;20315;-80
2021/06/24 09:02:37;;;;;;;5.30;2.97;;;;;;;21.68;71.63;101039.47;5030352;28;20234;-78
2021/06/24 09:05:05;;;;;;;4.30;2.80;;;;;;;21.73;69.14;101047.97;5034011;28;20212;-78
2021/06/24 09:07:47;;;;;;;3.63;2.63;;;;;;;21.70;68.26;101050.81;5034139;28;20238;-79
2021/06/24 09:10:13;;;;;;;4.57;2.90;;;;;;;21.62;69.15;101041.66;5033105;28;20216;-78
2021/06/24 09:12:50;;;;;;;4.77;3.00;;;;;;;21.55;70.40;101043.91;5030667;28;20228;-79
2021/06/24 09:15:17;;;;;;;5.27;2.90;;;;;;;21.65;69.03;101042.34;5034265;28;20488;-79
2021/06/24 09:17:45;;;;;;;4.43;3.33;;;;;;;21.54;68.35;101043.03;5031856;28;20645;-78
2021/06/24 09:20:30;;;;;;;5.20;2.90;;;;;;;21.57;67.45;101044.66;5012407;28;20472;-78
2021/06/24 09:23:10;;;;;;;4.97;3.22;;;;;;;21.73;67.90;101044.47;5030358;28;20224;-81
2021/06/24 09:25:38;;;;;;;3.83;2.93;;;;;;;21.70;66.71;101047.31;5027971;28;20236;-81
2021/06/24 09:28:05;;;;;;;7.10;3.23;;;;;;;21.95;68.65;101033.25;5031200;28;20355;-79
2021/06/24 09:30:35;;;;;;;5.57;3.50;;;;;;;22.20;65.74;101044.84;5032104;28;20212;-79
2021/06/24 09:33:07;;;;;;;5.10;3.30;;;;;;;22.44;66.05;101040.56;5028276;28;20216;-79
2021/06/24 09:35:34;;;;;;;6.43;3.17;;;;;;;22.45;66.42;101036.94;5030362;28;20234;-79
2021/06/24 09:38:02;;;;;;;4.05;3.05;;;;;;;22.75;65.82;101041.06;5028462;28;20227;-79
2021/06/24 09:40:45;;;;;;;5.03;3.10;;;;;;;22.93;64.55;101040.72;5029622;28;20231;-79
2021/06/24 09:43:31;;;;;;;5.00;3.13;;;;;;;22.96;64.19;101037.84;5029842;28;20283;-79
2021/06/24 09:46:06;;;;;;;4.75;3.20;;;;;;;22.97;63.28;101032.41;5029189;28;20254;-78
2021/06/24 09:48:34;;;;;;;4.18;3.38;;;;;;;22.63;64.11;101033.97;5027959;28;20211;-79
2021/06/24 09:51:11;;;;;;;4.30;3.33;;;;;;;22.65;63.58;101035.53;5011554;28;20227;-79
2021/06/24 09:53:53;;;;;;;6.68;3.30;;;;;;;22.76;64.61;101031.28;5032907;28;20216;-79
2021/06/24 09:56:26;;;;;;;5.38;3.33;;;;;;;22.79;64.40;101031.91;5028313;28;20289;-79
2021/06/24 09:58:53;;;;;;;4.43;3.30;;;;;;;22.66;65.04;101042.56;5035018;28;20211;-79
2021/06/24 10:01:31;;;;;;;4.47;3.33;;;;;;;22.35;65.09;101038.53;5027810;28;20223;-79
2021/06/24 10:03:58;;;;;;;5.22;3.42;;;;;;;22.20;65.94;101032.47;5036175;28;20211;-79
2021/06/24 10:06:25;;;;;;;3.55;3.10;;;;;;;22.29;67.08;101031.84;5040376;28;20233;-79
2021/06/24 10:08:52;;;;;;;3.78;3.40;;;;;;;22.36;65.43;101032.28;5020520;28;20328;-78
2021/06/24 10:11:21;;;;;;;4.63;3.60;;;;;;;22.32;66.02;101044.06;5030965;28;20223;-79
2021/06/24 10:13:49;;;;;;;4.65;3.40;;;;;;;22.12;66.97;101029.47;5033478;28;20220;-78
2021/06/24 10:16:17;;;;;;;7.10;3.75;;;;;;;21.98;66.20;101038.38;5034350;28;20290;-79
2021/06/24 10:18:46;;;;;;;5.93;3.58;;;;;;;21.71;67.30;101039.28;5034125;28;20207;-78
2021/06/24 10:21:14;;;;;;;6.15;3.83;;;;;;;21.51;68.25;101039.72;5028907;28;20216;-78
2021/06/24 10:23:46;;;;;;;5.47;4.07;;;;;;;21.37;67.99;101030.84;5016088;28;20228;-81
2021/06/24 10:26:14;;;;;;;7.33;4.40;;;;;;;21.32;69.15;101027.66;5035412;28;20255;-80
2021/06/24 10:28:40;;;;;;;5.77;4.27;;;;;;;21.41;69.46;101034.16;5031308;28;20267;-79
2021/06/24 10:31:34;;;;;;;5.15;4.18;;;;;;;21.40;69.43;101040.41;5027099;28;20313;-79
2021/06/24 10:34:03;;;;;;;4.67;4.17;;;;;;;21.32;69.20;101032.13;5024656;28;20804;-80
2021/06/24 10:36:30;;;;;;;5.30;4.60;;;;;;;21.28;67.88;101036.75;5030458;28;20269;-79
2021/06/24 10:38:57;;;;;;;4.97;4.47;;;;;;;21.59;69.54;101034.78;5027358;28;20332;-79
2021/06/24 10:41:24;;;;;;;10.80;4.97;;;;;;;21.81;67.00;101031.56;5028715;28;20216;-79
2021/06/24 10:43:52;;;;;;;6.13;4.30;;;;;;;21.74;66.25;101033.75;5030319;28;20266;-80
2021/06/24 10:46:22;;;;;;;7.63;4.17;;;;;;;21.74;66.06;101027.63;5032408;28;20485;-79
2021/06/24 10:48:48;;;;;;;4.40;4.00;;;;;;;22.16;67.41;101022.13;5027985;28;20258;-79
2021/06/24 10:51:16;;;;;;;6.03;3.75;;;;;;;22.27;65.47;101023.13;5033609;28;20323;-80
2021/06/24 10:53:49;;;;;;;6.75;3.97;;;;;;;22.56;65.15;101019.41;5029808;28;20212;-80
2021/06/24 10:56:44;;;;;;;5.05;3.80;;;;;;;22.64;66.37;101006.44;5022216;28;20914;-79
2021/06/24 10:59:27;;;;;;;4.97;3.22;;;;;;;22.83;65.00;101013.91;5023575;28;20200;-79
2021/06/24 11:02:05;;;;;;;4.70;3.72;;;;;;;22.56;64.59;101012.28;5030037;28;20223;-79
2021/06/24 11:04:36;;;;;;;4.85;3.70;;;;;;;22.46;64.96;101001.47;5028873;28;20195;-80
2021/06/24 11:07:16;;;;;;;6.97;3.90;;;;;;;22.49;65.34;101003.88;5031531;28;20796;-79
2021/06/24 11:10:19;;;;;;;5.85;3.67;;;;;;;22.41;64.80;101002.72;5032135;28;20298;-80
2021/06/24 11:12:49;;;;;;;4.43;3.63;;;;;;;22.30;64.78;100995.50;5028620;28;20211;-79
2021/06/24 11:15:47;;;;;;;5.25;4.15;;;;;;;22.38;66.52;100987.84;5032762;28;20584;-79
2021/06/24 11:18:49;;;;;;;4.40;3.58;;;;;;;22.45;64.72;100998.91;5026657;28;20686;-79
2021/06/24 11:21:22;;;;;;;5.20;4.10;;;;;;;22.27;65.49;100999.22;5000664;28;20231;-79
2021/06/24 11:23:52;;;;;;;4.77;3.43;;;;;;;22.23;64.41;101000.38;5030334;28;20579;-80
2021/06/24 11:26:20;;;;;;;6.28;4.18;;;;;;;22.58;64.93;101002.38;5037579;28;20302;-80
2021/06/24 11:28:49;;;;;;;4.77;4.00;;;;;;;22.83;62.62;101005.94;5017658;28;20210;-80
2021/06/24 11:31:19;;;;;;;4.97;3.88;;;;;;;22.76;62.92;101005.56;5015018;28;20238;-79
2021/06/24 11:33:59;;;;;;;5.30;3.90;;;;;;;22.59;62.66;101011.22;5029032;28;20254;-80